sensor_id;sensor_type;location;lat;lon;timestamp;P1;durP1;ratioP1;P2;durP2;ratioP2
18716;SDS011;9487;50.892;6.906;2023-12-20T00:01:28;10.57;;;9.57;;
18716;SDS011;9487;50.892;6.906;2023-12-20T00:03:55;10.30;;;9.30;;
18716;SDS011;9487;50.892;6.906;2023-12-20T00:06:23;10.30;;;9.30;;
18716;SDS011;9487;50.892;6.906;2023-12-20T00:08:50;10.17;;;9.07;;
18716;SDS011;9487;50.892;6.906;2023-12-20T00:11:19;10.83;;;9.83;;
18716;SDS011;9487;50.892;6.906;2023-12-20T00:13:47;10.77;;;9.43;;
18716;SDS011;9487;50.892;6.906;2023-12-20T00:16:16;11.47;;;10.27;;
18716;SDS011;9487;50.892;6.906;2023-12-20T00:18:43;10.93;;;9.83;;
18716;SDS011;9487;50.892;6.906;2023-12-20T00:21:11;10.80;;;9.80;;
18716;SDS011;9487;50.892;6.906;2023-12-20T00:23:41;10.33;;;9.33;;
18716;SDS011;9487;50.892;6.906;2023-12-20T00:26:08;11.10;;;10.10;;
18716;SDS011;9487;50.892;6.906;2023-12-20T00:28:35;11.40;;;10.30;;
18716;SDS011;9487;50.892;6.906;2023-12-20T00:31:02;11.83;;;10.57;;
18716;SDS011;9487;50.892;6.906;2023-12-20T00:33:29;13.30;;;11.90;;
18716;SDS011;9487;50.892;6.906;2023-12-20T00:35:56;11.97;;;10.77;;
18716;SDS011;9487;50.892;6.906;2023-12-20T00:38:23;12.63;;;11.33;;
18716;SDS011;9487;50.892;6.906;2023-12-20T00:40:52;13.93;;;12.47;;
18716;SDS011;9487;50.892;6.906;2023-12-20T00:43:19;13.60;;;12.20;;
18716;SDS011;9487;50.892;6.906;2023-12-20T00:45:46;12.93;;;11.73;;
18716;SDS011;9487;50.892;6.906;2023-12-20T00:48:13;14.77;;;12.80;;
18716;SDS011;9487;50.892;6.906;2023-12-20T00:50:40;15.80;;;13.50;;
18716;SDS011;9487;50.892;6.906;2023-12-20T00:53:10;14.13;;;12.40;;
18716;SDS011;9487;50.892;6.906;2023-12-20T00:55:37;14.30;;;12.63;;
18716;SDS011;9487;50.892;6.906;2023-12-20T00:58:05;14.63;;;12.27;;
18716;SDS011;9487;50.892;6.906;2023-12-20T01:00:32;13.83;;;11.93;;
18716;SDS011;9487;50.892;6.906;2023-12-20T01:02:59;13.67;;;12.17;;
18716;SDS011;9487;50.892;6.906;2023-12-20T01:05:26;12.30;;;11.10;;
18716;SDS011;9487;50.892;6.906;2023-12-20T01:07:53;13.03;;;11.20;;
18716;SDS011;9487;50.892;6.906;2023-12-20T01:10:20;12.23;;;10.53;;
18716;SDS011;9487;50.892;6.906;2023-12-20T01:12:47;12.77;;;10.67;;
18716;SDS011;9487;50.892;6.906;2023-12-20T01:15:16;13.47;;;10.63;;
18716;SDS011;9487;50.892;6.906;2023-12-20T01:17:43;12.47;;;11.17;;
18716;SDS011;9487;50.892;6.906;2023-12-20T01:20:10;14.00;;;10.77;;
18716;SDS011;9487;50.892;6.906;2023-12-20T01:22:36;12.30;;;10.33;;
18716;SDS011;9487;50.892;6.906;2023-12-20T01:25:04;13.87;;;11.93;;
18716;SDS011;9487;50.892;6.906;2023-12-20T01:27:31;15.03;;;11.70;;
18716;SDS011;9487;50.892;6.906;2023-12-20T01:29:58;17.57;;;11.83;;
18716;SDS011;9487;50.892;6.906;2023-12-20T01:32:26;13.70;;;11.43;;
18716;SDS011;9487;50.892;6.906;2023-12-20T01:34:53;13.90;;;11.37;;
18716;SDS011;9487;50.892;6.906;2023-12-20T01:37:20;19.53;;;13.47;;
18716;SDS011;9487;50.892;6.906;2023-12-20T01:39:48;16.43;;;13.27;;
18716;SDS011;9487;50.892;6.906;2023-12-20T01:42:15;17.57;;;14.17;;
18716;SDS011;9487;50.892;6.906;2023-12-20T01:44:42;20.07;;;14.40;;
18716;SDS011;9487;50.892;6.906;2023-12-20T01:47:09;17.73;;;13.57;;
18716;SDS011;9487;50.892;6.906;2023-12-20T01:49:37;18.40;;;13.73;;
18716;SDS011;9487;50.892;6.906;2023-12-20T01:52:04;15.50;;;13.20;;
18716;SDS011;9487;50.892;6.906;2023-12-20T01:54:31;18.17;;;13.27;;
18716;SDS011;9487;50.892;6.906;2023-12-20T01:56:58;17.37;;;12.90;;
18716;SDS011;9487;50.892;6.906;2023-12-20T01:59:24;15.63;;;11.07;;
18716;SDS011;9487;50.892;6.906;2023-12-20T02:01:51;12.40;;;10.00;;
18716;SDS011;9487;50.892;6.906;2023-12-20T02:04:18;12.90;;;8.83;;
18716;SDS011;9487;50.892;6.906;2023-12-20T02:06:46;14.27;;;9.07;;
18716;SDS011;9487;50.892;6.906;2023-12-20T02:09:13;11.90;;;7.93;;
18716;SDS011;9487;50.892;6.906;2023-12-20T02:11:40;13.73;;;8.17;;
18716;SDS011;9487;50.892;6.906;2023-12-20T02:14:07;12.00;;;7.73;;
18716;SDS011;9487;50.892;6.906;2023-12-20T02:16:34;16.40;;;8.00;;
18716;SDS011;9487;50.892;6.906;2023-12-20T02:19:00;13.70;;;7.43;;
18716;SDS011;9487;50.892;6.906;2023-12-20T02:21:35;17.20;;;7.27;;
18716;SDS011;9487;50.892;6.906;2023-12-20T02:24:02;11.73;;;5.90;;
18716;SDS011;9487;50.892;6.906;2023-12-20T02:26:29;10.27;;;6.10;;
18716;SDS011;9487;50.892;6.906;2023-12-20T02:28:56;12.77;;;5.87;;
18716;SDS011;9487;50.892;6.906;2023-12-20T02:31:23;10.73;;;5.80;;
18716;SDS011;9487;50.892;6.906;2023-12-20T02:33:50;11.07;;;5.83;;
18716;SDS011;9487;50.892;6.906;2023-12-20T02:36:17;12.03;;;4.83;;
18716;SDS011;9487;50.892;6.906;2023-12-20T02:38:45;13.17;;;5.00;;
18716;SDS011;9487;50.892;6.906;2023-12-20T02:41:12;13.67;;;4.37;;
18716;SDS011;9487;50.892;6.906;2023-12-20T02:43:40;11.30;;;4.10;;
18716;SDS011;9487;50.892;6.906;2023-12-20T02:46:07;8.40;;;4.03;;
18716;SDS011;9487;50.892;6.906;2023-12-20T02:48:34;11.13;;;3.33;;
18716;SDS011;9487;50.892;6.906;2023-12-20T02:51:01;11.70;;;3.80;;
18716;SDS011;9487;50.892;6.906;2023-12-20T02:53:28;8.93;;;3.30;;
18716;SDS011;9487;50.892;6.906;2023-12-20T02:55:56;13.87;;;4.17;;
18716;SDS011;9487;50.892;6.906;2023-12-20T02:58:23;12.17;;;3.77;;
18716;SDS011;9487;50.892;6.906;2023-12-20T03:00:49;13.43;;;3.77;;
18716;SDS011;9487;50.892;6.906;2023-12-20T03:03:17;11.30;;;2.93;;
18716;SDS011;9487;50.892;6.906;2023-12-20T03:05:44;11.87;;;3.10;;
18716;SDS011;9487;50.892;6.906;2023-12-20T03:08:12;11.90;;;3.10;;
18716;SDS011;9487;50.892;6.906;2023-12-20T03:10:38;12.60;;;3.13;;
18716;SDS011;9487;50.892;6.906;2023-12-20T03:13:06;11.23;;;3.13;;
18716;SDS011;9487;50.892;6.906;2023-12-20T03:15:33;12.63;;;2.87;;
18716;SDS011;9487;50.892;6.906;2023-12-20T03:18:00;11.27;;;3.50;;
18716;SDS011;9487;50.892;6.906;2023-12-20T03:20:27;15.10;;;3.37;;
18716;SDS011;9487;50.892;6.906;2023-12-20T03:22:56;10.20;;;2.60;;
18716;SDS011;9487;50.892;6.906;2023-12-20T03:25:22;14.03;;;3.27;;
18716;SDS011;9487;50.892;6.906;2023-12-20T03:27:49;9.73;;;2.77;;
18716;SDS011;9487;50.892;6.906;2023-12-20T03:30:17;11.47;;;2.80;;
18716;SDS011;9487;50.892;6.906;2023-12-20T03:32:44;13.93;;;3.33;;
18716;SDS011;9487;50.892;6.906;2023-12-20T03:35:11;11.10;;;2.90;;
18716;SDS011;9487;50.892;6.906;2023-12-20T03:37:38;11.63;;;3.20;;
18716;SDS011;9487;50.892;6.906;2023-12-20T03:40:05;9.77;;;3.00;;
18716;SDS011;9487;50.892;6.906;2023-12-20T03:42:33;9.30;;;3.10;;
18716;SDS011;9487;50.892;6.906;2023-12-20T03:44:59;11.00;;;3.20;;
18716;SDS011;9487;50.892;6.906;2023-12-20T03:47:27;19.97;;;4.00;;
18716;SDS011;9487;50.892;6.906;2023-12-20T03:49:54;14.53;;;3.00;;
18716;SDS011;9487;50.892;6.906;2023-12-20T03:52:21;15.83;;;3.93;;
18716;SDS011;9487;50.892;6.906;2023-12-20T03:54:48;10.37;;;4.20;;
18716;SDS011;9487;50.892;6.906;2023-12-20T03:57:14;11.73;;;3.93;;
18716;SDS011;9487;50.892;6.906;2023-12-20T03:59:41;9.93;;;3.57;;
18716;SDS011;9487;50.892;6.906;2023-12-20T04:02:08;11.63;;;4.33;;
18716;SDS011;9487;50.892;6.906;2023-12-20T04:04:36;11.77;;;3.77;;
18716;SDS011;9487;50.892;6.906;2023-12-20T04:07:03;12.13;;;5.20;;
18716;SDS011;9487;50.892;6.906;2023-12-20T04:09:30;11.73;;;4.00;;
18716;SDS011;9487;50.892;6.906;2023-12-20T04:11:56;12.00;;;4.27;;
18716;SDS011;9487;50.892;6.906;2023-12-20T04:14:23;14.00;;;3.40;;
18716;SDS011;9487;50.892;6.906;2023-12-20T04:16:50;10.10;;;3.40;;
18716;SDS011;9487;50.892;6.906;2023-12-20T04:19:17;16.47;;;4.30;;
18716;SDS011;9487;50.892;6.906;2023-12-20T04:21:45;16.53;;;4.70;;
18716;SDS011;9487;50.892;6.906;2023-12-20T04:24:12;16.07;;;3.63;;
18716;SDS011;9487;50.892;6.906;2023-12-20T04:26:39;13.77;;;4.17;;
18716;SDS011;9487;50.892;6.906;2023-12-20T04:29:06;13.80;;;4.30;;
18716;SDS011;9487;50.892;6.906;2023-12-20T04:31:32;17.30;;;4.53;;
18716;SDS011;9487;50.892;6.906;2023-12-20T04:33:59;11.40;;;4.30;;
18716;SDS011;9487;50.892;6.906;2023-12-20T04:36:26;13.20;;;4.60;;
18716;SDS011;9487;50.892;6.906;2023-12-20T04:38:56;15.73;;;4.60;;
18716;SDS011;9487;50.892;6.906;2023-12-20T04:41:24;10.03;;;4.27;;
18716;SDS011;9487;50.892;6.906;2023-12-20T04:43:52;12.73;;;4.17;;
18716;SDS011;9487;50.892;6.906;2023-12-20T04:46:19;11.60;;;3.90;;
18716;SDS011;9487;50.892;6.906;2023-12-20T04:48:46;9.87;;;4.10;;
18716;SDS011;9487;50.892;6.906;2023-12-20T04:51:13;10.93;;;4.20;;
18716;SDS011;9487;50.892;6.906;2023-12-20T04:53:39;11.90;;;4.70;;
18716;SDS011;9487;50.892;6.906;2023-12-20T04:56:08;10.87;;;5.00;;
18716;SDS011;9487;50.892;6.906;2023-12-20T04:58:35;14.03;;;4.87;;
18716;SDS011;9487;50.892;6.906;2023-12-20T05:01:02;12.80;;;4.50;;
18716;SDS011;9487;50.892;6.906;2023-12-20T05:03:29;10.23;;;4.47;;
18716;SDS011;9487;50.892;6.906;2023-12-20T05:05:56;15.70;;;4.93;;
18716;SDS011;9487;50.892;6.906;2023-12-20T05:08:23;12.20;;;4.50;;
18716;SDS011;9487;50.892;6.906;2023-12-20T05:10:50;11.83;;;4.60;;
18716;SDS011;9487;50.892;6.906;2023-12-20T05:13:18;13.40;;;5.30;;
18716;SDS011;9487;50.892;6.906;2023-12-20T05:15:45;12.50;;;4.23;;
18716;SDS011;9487;50.892;6.906;2023-12-20T05:18:12;13.30;;;4.53;;
18716;SDS011;9487;50.892;6.906;2023-12-20T05:20:39;15.13;;;4.80;;
18716;SDS011;9487;50.892;6.906;2023-12-20T05:23:06;12.83;;;4.97;;
18716;SDS011;9487;50.892;6.906;2023-12-20T05:25:33;11.80;;;4.37;;
18716;SDS011;9487;50.892;6.906;2023-12-20T05:28:00;13.43;;;4.73;;
18716;SDS011;9487;50.892;6.906;2023-12-20T05:30:28;15.63;;;4.90;;
18716;SDS011;9487;50.892;6.906;2023-12-20T05:32:55;11.00;;;4.60;;
18716;SDS011;9487;50.892;6.906;2023-12-20T05:35:22;12.73;;;4.57;;
18716;SDS011;9487;50.892;6.906;2023-12-20T05:37:48;15.47;;;5.40;;
18716;SDS011;9487;50.892;6.906;2023-12-20T05:40:16;14.87;;;5.40;;
18716;SDS011;9487;50.892;6.906;2023-12-20T05:42:42;13.27;;;4.40;;
18716;SDS011;9487;50.892;6.906;2023-12-20T05:45:09;13.50;;;4.77;;
18716;SDS011;9487;50.892;6.906;2023-12-20T05:47:38;13.33;;;4.70;;
18716;SDS011;9487;50.892;6.906;2023-12-20T05:50:05;12.07;;;4.63;;
18716;SDS011;9487;50.892;6.906;2023-12-20T05:52:32;16.37;;;5.53;;
18716;SDS011;9487;50.892;6.906;2023-12-20T05:54:59;12.70;;;4.77;;
18716;SDS011;9487;50.892;6.906;2023-12-20T05:57:27;10.53;;;4.67;;
18716;SDS011;9487;50.892;6.906;2023-12-20T05:59:54;11.60;;;5.63;;
18716;SDS011;9487;50.892;6.906;2023-12-20T06:02:24;9.53;;;5.27;;
18716;SDS011;9487;50.892;6.906;2023-12-20T06:04:52;16.07;;;7.30;;
18716;SDS011;9487;50.892;6.906;2023-12-20T06:07:19;14.47;;;6.17;;
18716;SDS011;9487;50.892;6.906;2023-12-20T06:09:45;13.57;;;5.70;;
18716;SDS011;9487;50.892;6.906;2023-12-20T06:12:12;12.30;;;5.33;;
18716;SDS011;9487;50.892;6.906;2023-12-20T06:14:39;15.60;;;5.50;;
18716;SDS011;9487;50.892;6.906;2023-12-20T06:17:06;16.50;;;5.53;;
18716;SDS011;9487;50.892;6.906;2023-12-20T06:19:32;12.97;;;5.63;;
18716;SDS011;9487;50.892;6.906;2023-12-20T06:22:00;14.00;;;5.23;;
18716;SDS011;9487;50.892;6.906;2023-12-20T06:24:27;16.67;;;5.63;;
18716;SDS011;9487;50.892;6.906;2023-12-20T06:26:58;16.53;;;5.37;;
18716;SDS011;9487;50.892;6.906;2023-12-20T06:29:26;14.07;;;5.27;;
18716;SDS011;9487;50.892;6.906;2023-12-20T06:31:52;15.10;;;5.10;;
18716;SDS011;9487;50.892;6.906;2023-12-20T06:34:19;15.80;;;4.80;;
18716;SDS011;9487;50.892;6.906;2023-12-20T06:36:46;12.97;;;6.10;;
18716;SDS011;9487;50.892;6.906;2023-12-20T06:39:14;14.07;;;5.77;;
18716;SDS011;9487;50.892;6.906;2023-12-20T06:41:41;19.07;;;5.33;;
18716;SDS011;9487;50.892;6.906;2023-12-20T06:44:08;15.70;;;5.07;;
18716;SDS011;9487;50.892;6.906;2023-12-20T06:46:35;13.97;;;4.77;;
18716;SDS011;9487;50.892;6.906;2023-12-20T06:49:02;15.23;;;5.50;;
18716;SDS011;9487;50.892;6.906;2023-12-20T06:51:28;15.30;;;4.93;;
18716;SDS011;9487;50.892;6.906;2023-12-20T06:53:56;13.77;;;5.17;;
18716;SDS011;9487;50.892;6.906;2023-12-20T06:56:24;12.90;;;4.70;;
18716;SDS011;9487;50.892;6.906;2023-12-20T06:58:51;12.17;;;4.43;;
18716;SDS011;9487;50.892;6.906;2023-12-20T07:01:17;18.10;;;4.80;;
18716;SDS011;9487;50.892;6.906;2023-12-20T07:03:44;13.87;;;4.00;;
18716;SDS011;9487;50.892;6.906;2023-12-20T07:06:11;14.00;;;4.67;;
18716;SDS011;9487;50.892;6.906;2023-12-20T07:08:39;15.97;;;4.37;;
18716;SDS011;9487;50.892;6.906;2023-12-20T07:11:06;10.63;;;4.13;;
18716;SDS011;9487;50.892;6.906;2023-12-20T07:13:34;16.13;;;5.63;;
18716;SDS011;9487;50.892;6.906;2023-12-20T07:16:01;13.23;;;4.57;;
18716;SDS011;9487;50.892;6.906;2023-12-20T07:18:29;12.50;;;4.53;;
18716;SDS011;9487;50.892;6.906;2023-12-20T07:20:55;9.97;;;4.90;;
18716;SDS011;9487;50.892;6.906;2023-12-20T07:23:22;15.10;;;5.03;;
18716;SDS011;9487;50.892;6.906;2023-12-20T07:25:50;15.17;;;4.93;;
18716;SDS011;9487;50.892;6.906;2023-12-20T07:28:17;12.67;;;4.67;;
18716;SDS011;9487;50.892;6.906;2023-12-20T07:30:45;9.53;;;4.60;;
18716;SDS011;9487;50.892;6.906;2023-12-20T07:33:12;8.53;;;4.30;;
18716;SDS011;9487;50.892;6.906;2023-12-20T07:35:39;18.37;;;5.70;;
18716;SDS011;9487;50.892;6.906;2023-12-20T07:38:06;14.30;;;4.50;;
18716;SDS011;9487;50.892;6.906;2023-12-20T07:40:32;17.47;;;5.77;;
18716;SDS011;9487;50.892;6.906;2023-12-20T07:42:59;14.93;;;5.40;;
18716;SDS011;9487;50.892;6.906;2023-12-20T07:45:26;14.90;;;5.30;;
18716;SDS011;9487;50.892;6.906;2023-12-20T07:47:54;8.33;;;4.60;;
18716;SDS011;9487;50.892;6.906;2023-12-20T07:50:21;15.80;;;4.77;;
18716;SDS011;9487;50.892;6.906;2023-12-20T07:52:48;14.13;;;4.63;;
18716;SDS011;9487;50.892;6.906;2023-12-20T07:55:14;15.87;;;5.27;;
18716;SDS011;9487;50.892;6.906;2023-12-20T07:57:41;10.43;;;4.53;;
18716;SDS011;9487;50.892;6.906;2023-12-20T08:00:08;16.37;;;4.83;;
18716;SDS011;9487;50.892;6.906;2023-12-20T08:02:36;11.90;;;4.47;;
18716;SDS011;9487;50.892;6.906;2023-12-20T08:05:05;15.23;;;5.37;;
18716;SDS011;9487;50.892;6.906;2023-12-20T08:07:32;16.17;;;5.10;;
18716;SDS011;9487;50.892;6.906;2023-12-20T08:09:59;13.10;;;5.23;;
18716;SDS011;9487;50.892;6.906;2023-12-20T08:12:26;11.67;;;4.90;;
18716;SDS011;9487;50.892;6.906;2023-12-20T08:14:52;17.77;;;5.10;;
18716;SDS011;9487;50.892;6.906;2023-12-20T08:17:19;14.27;;;5.37;;
18716;SDS011;9487;50.892;6.906;2023-12-20T08:19:48;12.47;;;4.90;;
18716;SDS011;9487;50.892;6.906;2023-12-20T08:22:16;11.17;;;4.37;;
18716;SDS011;9487;50.892;6.906;2023-12-20T08:24:43;10.03;;;4.90;;
18716;SDS011;9487;50.892;6.906;2023-12-20T08:27:10;10.03;;;5.17;;
18716;SDS011;9487;50.892;6.906;2023-12-20T08:29:36;12.73;;;5.40;;
18716;SDS011;9487;50.892;6.906;2023-12-20T08:32:03;17.27;;;4.77;;
18716;SDS011;9487;50.892;6.906;2023-12-20T08:34:31;16.13;;;4.90;;
18716;SDS011;9487;50.892;6.906;2023-12-20T08:36:57;11.63;;;4.00;;
18716;SDS011;9487;50.892;6.906;2023-12-20T08:39:26;12.73;;;5.07;;
18716;SDS011;9487;50.892;6.906;2023-12-20T08:41:52;12.20;;;4.57;;
18716;SDS011;9487;50.892;6.906;2023-12-20T08:44:19;15.53;;;4.43;;
18716;SDS011;9487;50.892;6.906;2023-12-20T08:46:47;17.67;;;4.50;;
18716;SDS011;9487;50.892;6.906;2023-12-20T08:49:14;10.47;;;4.97;;
18716;SDS011;9487;50.892;6.906;2023-12-20T08:51:41;13.63;;;4.83;;
18716;SDS011;9487;50.892;6.906;2023-12-20T08:54:10;12.60;;;4.70;;
18716;SDS011;9487;50.892;6.906;2023-12-20T08:56:39;15.07;;;4.73;;
18716;SDS011;9487;50.892;6.906;2023-12-20T08:59:08;13.03;;;4.67;;
18716;SDS011;9487;50.892;6.906;2023-12-20T09:01:35;15.43;;;4.93;;
18716;SDS011;9487;50.892;6.906;2023-12-20T09:04:02;9.30;;;4.70;;
18716;SDS011;9487;50.892;6.906;2023-12-20T09:06:29;16.50;;;4.63;;
18716;SDS011;9487;50.892;6.906;2023-12-20T09:08:55;12.83;;;4.83;;
18716;SDS011;9487;50.892;6.906;2023-12-20T09:11:22;17.10;;;4.70;;
18716;SDS011;9487;50.892;6.906;2023-12-20T09:13:51;17.57;;;4.77;;
18716;SDS011;9487;50.892;6.906;2023-12-20T09:16:19;12.50;;;3.67;;
18716;SDS011;9487;50.892;6.906;2023-12-20T09:18:46;14.93;;;4.27;;
18716;SDS011;9487;50.892;6.906;2023-12-20T09:21:13;10.27;;;4.00;;
18716;SDS011;9487;50.892;6.906;2023-12-20T09:23:40;12.70;;;3.90;;
18716;SDS011;9487;50.892;6.906;2023-12-20T09:26:07;9.97;;;3.87;;
18716;SDS011;9487;50.892;6.906;2023-12-20T09:28:34;13.70;;;3.90;;
18716;SDS011;9487;50.892;6.906;2023-12-20T09:31:04;15.07;;;3.67;;
18716;SDS011;9487;50.892;6.906;2023-12-20T09:33:32;12.60;;;4.03;;
18716;SDS011;9487;50.892;6.906;2023-12-20T09:36:00;11.53;;;4.20;;
18716;SDS011;9487;50.892;6.906;2023-12-20T09:38:27;11.47;;;3.80;;
18716;SDS011;9487;50.892;6.906;2023-12-20T09:40:55;17.63;;;4.50;;
18716;SDS011;9487;50.892;6.906;2023-12-20T09:43:23;10.87;;;4.00;;
18716;SDS011;9487;50.892;6.906;2023-12-20T09:45:52;9.57;;;3.63;;
18716;SDS011;9487;50.892;6.906;2023-12-20T09:48:21;12.00;;;4.40;;
18716;SDS011;9487;50.892;6.906;2023-12-20T09:50:48;13.23;;;3.93;;
18716;SDS011;9487;50.892;6.906;2023-12-20T09:53:15;10.87;;;3.20;;
18716;SDS011;9487;50.892;6.906;2023-12-20T09:55:45;9.30;;;3.70;;
18716;SDS011;9487;50.892;6.906;2023-12-20T09:58:12;12.77;;;3.50;;
18716;SDS011;9487;50.892;6.906;2023-12-20T10:00:39;12.40;;;3.63;;
18716;SDS011;9487;50.892;6.906;2023-12-20T10:03:06;14.70;;;4.53;;
18716;SDS011;9487;50.892;6.906;2023-12-20T10:05:36;12.03;;;3.63;;
18716;SDS011;9487;50.892;6.906;2023-12-20T10:08:04;11.87;;;3.50;;
18716;SDS011;9487;50.892;6.906;2023-12-20T10:10:31;12.90;;;3.70;;
18716;SDS011;9487;50.892;6.906;2023-12-20T10:13:01;9.33;;;3.40;;
18716;SDS011;9487;50.892;6.906;2023-12-20T10:15:28;12.90;;;4.00;;
18716;SDS011;9487;50.892;6.906;2023-12-20T10:17:56;10.67;;;4.40;;
18716;SDS011;9487;50.892;6.906;2023-12-20T10:20:23;10.47;;;3.60;;
18716;SDS011;9487;50.892;6.906;2023-12-20T10:22:51;13.70;;;4.00;;
18716;SDS011;9487;50.892;6.906;2023-12-20T10:25:19;9.47;;;3.80;;
18716;SDS011;9487;50.892;6.906;2023-12-20T10:27:46;10.50;;;3.40;;
18716;SDS011;9487;50.892;6.906;2023-12-20T10:30:13;10.83;;;3.30;;
18716;SDS011;9487;50.892;6.906;2023-12-20T10:32:40;6.57;;;3.30;;
18716;SDS011;9487;50.892;6.906;2023-12-20T10:35:08;11.80;;;4.00;;
18716;SDS011;9487;50.892;6.906;2023-12-20T10:37:35;17.43;;;3.80;;
18716;SDS011;9487;50.892;6.906;2023-12-20T10:40:04;12.23;;;3.80;;
18716;SDS011;9487;50.892;6.906;2023-12-20T10:42:32;9.47;;;4.03;;
18716;SDS011;9487;50.892;6.906;2023-12-20T10:45:01;11.37;;;4.00;;
18716;SDS011;9487;50.892;6.906;2023-12-20T10:47:28;11.87;;;3.93;;
18716;SDS011;9487;50.892;6.906;2023-12-20T10:49:57;9.23;;;3.60;;
18716;SDS011;9487;50.892;6.906;2023-12-20T10:52:26;10.50;;;4.00;;
18716;SDS011;9487;50.892;6.906;2023-12-20T10:54:55;12.93;;;4.33;;
18716;SDS011;9487;50.892;6.906;2023-12-20T10:57:23;9.20;;;3.53;;
18716;SDS011;9487;50.892;6.906;2023-12-20T10:59:54;13.00;;;3.43;;
18716;SDS011;9487;50.892;6.906;2023-12-20T11:02:25;11.93;;;3.70;;
18716;SDS011;9487;50.892;6.906;2023-12-20T11:04:55;11.40;;;3.33;;
18716;SDS011;9487;50.892;6.906;2023-12-20T11:07:29;6.67;;;3.00;;
18716;SDS011;9487;50.892;6.906;2023-12-20T11:10:00;13.13;;;3.33;;
18716;SDS011;9487;50.892;6.906;2023-12-20T11:12:39;13.83;;;3.90;;
18716;SDS011;9487;50.892;6.906;2023-12-20T11:15:12;10.90;;;3.40;;
18716;SDS011;9487;50.892;6.906;2023-12-20T11:17:42;13.23;;;3.50;;
18716;SDS011;9487;50.892;6.906;2023-12-20T11:20:11;11.20;;;3.47;;
18716;SDS011;9487;50.892;6.906;2023-12-20T11:22:38;15.10;;;3.63;;
18716;SDS011;9487;50.892;6.906;2023-12-20T11:25:18;10.97;;;3.63;;
18716;SDS011;9487;50.892;6.906;2023-12-20T11:28:06;10.00;;;3.17;;
18716;SDS011;9487;50.892;6.906;2023-12-20T11:30:40;12.17;;;4.43;;
18716;SDS011;9487;50.892;6.906;2023-12-20T11:33:07;11.63;;;3.97;;
18716;SDS011;9487;50.892;6.906;2023-12-20T11:35:34;10.13;;;3.33;;
18716;SDS011;9487;50.892;6.906;2023-12-20T11:38:02;10.53;;;4.00;;
18716;SDS011;9487;50.892;6.906;2023-12-20T11:40:29;12.47;;;4.03;;
18716;SDS011;9487;50.892;6.906;2023-12-20T11:43:02;7.83;;;3.70;;
18716;SDS011;9487;50.892;6.906;2023-12-20T11:45:30;10.10;;;3.17;;
18716;SDS011;9487;50.892;6.906;2023-12-20T11:47:57;10.83;;;3.53;;
18716;SDS011;9487;50.892;6.906;2023-12-20T11:50:24;9.17;;;3.33;;
18716;SDS011;9487;50.892;6.906;2023-12-20T11:52:51;11.30;;;4.10;;
18716;SDS011;9487;50.892;6.906;2023-12-20T11:55:19;9.63;;;3.30;;
18716;SDS011;9487;50.892;6.906;2023-12-20T11:57:46;7.20;;;3.20;;
18716;SDS011;9487;50.892;6.906;2023-12-20T12:00:14;9.43;;;2.93;;
18716;SDS011;9487;50.892;6.906;2023-12-20T12:02:42;9.33;;;3.20;;
18716;SDS011;9487;50.892;6.906;2023-12-20T12:05:09;9.97;;;3.43;;
18716;SDS011;9487;50.892;6.906;2023-12-20T12:07:35;8.33;;;3.30;;
18716;SDS011;9487;50.892;6.906;2023-12-20T12:10:02;10.10;;;3.43;;
18716;SDS011;9487;50.892;6.906;2023-12-20T12:12:29;11.10;;;3.10;;
18716;SDS011;9487;50.892;6.906;2023-12-20T12:14:57;9.23;;;3.77;;
18716;SDS011;9487;50.892;6.906;2023-12-20T12:17:26;13.97;;;3.93;;
18716;SDS011;9487;50.892;6.906;2023-12-20T12:19:52;7.73;;;3.50;;
18716;SDS011;9487;50.892;6.906;2023-12-20T12:22:32;9.33;;;4.00;;
18716;SDS011;9487;50.892;6.906;2023-12-20T12:24:59;11.60;;;3.43;;
18716;SDS011;9487;50.892;6.906;2023-12-20T12:27:35;11.53;;;4.13;;
18716;SDS011;9487;50.892;6.906;2023-12-20T12:30:03;10.67;;;3.77;;
18716;SDS011;9487;50.892;6.906;2023-12-20T12:32:33;10.47;;;3.50;;
18716;SDS011;9487;50.892;6.906;2023-12-20T12:35:02;12.23;;;4.00;;
18716;SDS011;9487;50.892;6.906;2023-12-20T12:37:31;11.10;;;3.40;;
18716;SDS011;9487;50.892;6.906;2023-12-20T12:40:00;13.33;;;4.10;;
18716;SDS011;9487;50.892;6.906;2023-12-20T12:42:27;13.87;;;4.00;;
18716;SDS011;9487;50.892;6.906;2023-12-20T12:44:54;9.30;;;4.50;;
18716;SDS011;9487;50.892;6.906;2023-12-20T12:47:21;10.97;;;3.73;;
18716;SDS011;9487;50.892;6.906;2023-12-20T12:49:51;14.10;;;4.53;;
18716;SDS011;9487;50.892;6.906;2023-12-20T12:52:18;12.53;;;3.80;;
18716;SDS011;9487;50.892;6.906;2023-12-20T12:54:45;6.70;;;3.37;;
18716;SDS011;9487;50.892;6.906;2023-12-20T12:57:12;13.73;;;4.00;;
18716;SDS011;9487;50.892;6.906;2023-12-20T12:59:40;13.40;;;4.10;;
18716;SDS011;9487;50.892;6.906;2023-12-20T13:02:07;10.73;;;3.90;;
18716;SDS011;9487;50.892;6.906;2023-12-20T13:04:34;8.77;;;3.70;;
18716;SDS011;9487;50.892;6.906;2023-12-20T13:07:02;15.10;;;4.73;;
18716;SDS011;9487;50.892;6.906;2023-12-20T13:09:29;11.10;;;4.50;;
18716;SDS011;9487;50.892;6.906;2023-12-20T13:11:56;10.00;;;4.07;;
18716;SDS011;9487;50.892;6.906;2023-12-20T13:14:24;11.13;;;4.80;;
18716;SDS011;9487;50.892;6.906;2023-12-20T13:16:50;11.17;;;4.53;;
18716;SDS011;9487;50.892;6.906;2023-12-20T13:19:17;7.20;;;3.97;;
18716;SDS011;9487;50.892;6.906;2023-12-20T13:21:44;9.33;;;3.80;;
18716;SDS011;9487;50.892;6.906;2023-12-20T13:24:12;10.17;;;3.97;;
18716;SDS011;9487;50.892;6.906;2023-12-20T13:26:39;10.03;;;4.53;;
18716;SDS011;9487;50.892;6.906;2023-12-20T13:29:06;10.57;;;4.30;;
18716;SDS011;9487;50.892;6.906;2023-12-20T13:31:32;9.47;;;4.60;;
18716;SDS011;9487;50.892;6.906;2023-12-20T13:34:01;11.50;;;5.20;;
18716;SDS011;9487;50.892;6.906;2023-12-20T13:36:28;8.73;;;4.57;;
18716;SDS011;9487;50.892;6.906;2023-12-20T13:38:55;12.53;;;4.10;;
18716;SDS011;9487;50.892;6.906;2023-12-20T13:41:23;11.23;;;4.73;;
18716;SDS011;9487;50.892;6.906;2023-12-20T13:43:50;10.63;;;4.93;;
18716;SDS011;9487;50.892;6.906;2023-12-20T13:46:17;10.77;;;4.60;;
18716;SDS011;9487;50.892;6.906;2023-12-20T13:48:44;9.63;;;4.40;;
18716;SDS011;9487;50.892;6.906;2023-12-20T13:51:11;13.33;;;4.70;;
18716;SDS011;9487;50.892;6.906;2023-12-20T13:53:38;11.23;;;4.03;;
18716;SDS011;9487;50.892;6.906;2023-12-20T13:56:05;7.13;;;3.57;;
18716;SDS011;9487;50.892;6.906;2023-12-20T13:58:34;7.27;;;3.60;;
18716;SDS011;9487;50.892;6.906;2023-12-20T14:01:00;9.00;;;3.70;;
18716;SDS011;9487;50.892;6.906;2023-12-20T14:03:27;9.37;;;3.47;;
18716;SDS011;9487;50.892;6.906;2023-12-20T14:05:56;7.07;;;3.00;;
18716;SDS011;9487;50.892;6.906;2023-12-20T14:08:22;7.07;;;3.27;;
18716;SDS011;9487;50.892;6.906;2023-12-20T14:10:50;12.03;;;3.60;;
18716;SDS011;9487;50.892;6.906;2023-12-20T14:13:17;10.10;;;3.63;;
18716;SDS011;9487;50.892;6.906;2023-12-20T14:15:45;13.60;;;3.97;;
18716;SDS011;9487;50.892;6.906;2023-12-20T14:18:13;7.53;;;3.60;;
18716;SDS011;9487;50.892;6.906;2023-12-20T14:20:40;7.73;;;3.30;;
18716;SDS011;9487;50.892;6.906;2023-12-20T14:23:07;10.47;;;3.40;;
18716;SDS011;9487;50.892;6.906;2023-12-20T14:25:35;9.10;;;3.87;;
18716;SDS011;9487;50.892;6.906;2023-12-20T14:28:03;8.57;;;3.63;;
18716;SDS011;9487;50.892;6.906;2023-12-20T14:30:30;10.60;;;3.83;;
18716;SDS011;9487;50.892;6.906;2023-12-20T14:32:58;8.73;;;3.47;;
18716;SDS011;9487;50.892;6.906;2023-12-20T14:35:25;9.67;;;3.77;;
18716;SDS011;9487;50.892;6.906;2023-12-20T14:37:52;10.47;;;3.67;;
18716;SDS011;9487;50.892;6.906;2023-12-20T14:40:19;8.83;;;3.50;;
18716;SDS011;9487;50.892;6.906;2023-12-20T14:42:45;9.03;;;3.70;;
18716;SDS011;9487;50.892;6.906;2023-12-20T14:45:12;10.17;;;3.57;;
18716;SDS011;9487;50.892;6.906;2023-12-20T14:47:41;6.77;;;3.77;;
18716;SDS011;9487;50.892;6.906;2023-12-20T14:50:10;7.57;;;3.83;;